KLBB 190955Z 1910/2006 23013KT P6SM VCTS SCT100CB BKN250 WS010/22040KT
FM191500 26011KT P6SM FEW100 SCT250
From batch tds/tafs/production/2023/9/19/h09_m58_tafs.cache.xml
Issued (10 months ago)
Forecasts
1910/1915 23013KT P6SM SCTCB10000 BKN25000

---
wx_string: VCTS
fcst_time_to: '2023-09-19T15:00:00Z'
sky_condition:
- - sky_cover: SCT
    cloud_type: CB
    cloud_base_ft_agl: '10000'
- - sky_cover: BKN
    cloud_base_ft_agl: '25000'
wind_speed_kt: '13'
fcst_time_from: '2023-09-19T10:00:00Z'
wind_dir_degrees: '230'
wind_shear_speed_kt: '40'
visibility_statute_mi: '6.21'
wind_shear_hgt_ft_agl: '1000'
wind_shear_dir_degrees: '220'

FM191500 26011KT P6SM FEW10000 SCT25000

---
fcst_time_to: '2023-09-20T06:00:00Z'
sky_condition:
- - sky_cover: FEW
    cloud_base_ft_agl: '10000'
- - sky_cover: SCT
    cloud_base_ft_agl: '25000'
wind_speed_kt: '11'
fcst_time_from: '2023-09-19T15:00:00Z'
change_indicator: FM
wind_dir_degrees: '260'
visibility_statute_mi: '6.21'

talk